createdAt,value
2017-02-02T00:00:38.314Z,939.4
2017-02-02T00:01:46.297Z,939.3
2017-02-02T00:02:54.390Z,939.4
2017-02-02T00:04:02.479Z,939.4
2017-02-02T00:05:10.684Z,939.4
2017-02-02T00:06:18.656Z,939.3
2017-02-02T00:07:26.750Z,939.2
2017-02-02T00:08:34.843Z,939.3
2017-02-02T00:09:42.930Z,939.3
2017-02-02T00:10:51.129Z,939.4
2017-02-02T00:11:59.117Z,939.4
2017-02-02T00:13:07.323Z,939.4
2017-02-02T00:14:15.296Z,939.4
2017-02-02T00:15:23.453Z,939.3
2017-02-02T00:16:31.530Z,939.3
2017-02-02T00:17:39.567Z,939.3
2017-02-02T00:18:47.660Z,939.3
2017-02-02T00:19:55.752Z,939.3
2017-02-02T00:21:03.847Z,939.2
2017-02-02T00:22:11.988Z,939.2
2017-02-02T00:23:20.024Z,939.3
2017-02-02T00:24:28.109Z,939.2
2017-02-02T00:25:36.200Z,939.2
2017-02-02T00:26:44.324Z,939.2
2017-02-02T00:27:52.503Z,939.2
2017-02-02T00:29:00.527Z,939.2
2017-02-02T00:30:08.560Z,939.2
2017-02-02T00:31:16.788Z,939.2
2017-02-02T00:32:24.739Z,939.2
2017-02-02T00:33:32.886Z,939.2
2017-02-02T00:34:40.918Z,939.2
2017-02-02T00:35:49.009Z,939.2
2017-02-02T00:36:57.092Z,939.2
2017-02-02T00:38:05.187Z,939.2
2017-02-02T00:39:13.335Z,939.1
2017-02-02T00:40:21.364Z,939.1
2017-02-02T00:41:29.452Z,939.1
2017-02-02T00:42:37.621Z,939.1
2017-02-02T00:43:45.640Z,939.1
2017-02-02T00:44:53.787Z,939.1
2017-02-02T00:46:01.842Z,939.1
2017-02-02T00:47:09.906Z,939.1
2017-02-02T00:48:17.997Z,939.1
2017-02-02T00:49:26.084Z,939.2
2017-02-02T00:50:34.234Z,939.1
2017-02-02T00:51:42.265Z,939.1
2017-02-02T00:52:50.357Z,939.1
2017-02-02T00:53:58.450Z,939.1
2017-02-02T00:55:06.542Z,939.1
2017-02-02T00:56:14.752Z,939.1
2017-02-02T00:57:22.828Z,939.1
2017-02-02T00:58:30.819Z,939.1
2017-02-02T00:59:38.910Z,939.0
2017-02-02T01:00:47.050Z,939.0
2017-02-02T01:01:55.149Z,939.0
2017-02-02T01:03:03.182Z,939.0
2017-02-02T01:04:11.275Z,939.0
2017-02-02T01:05:19.360Z,939.1
2017-02-02T01:06:27.455Z,939.0
2017-02-02T01:07:35.797Z,939.0
2017-02-02T01:08:43.760Z,939.0
2017-02-02T01:09:51.722Z,939.0
2017-02-02T01:10:59.825Z,939.0
2017-02-02T01:12:07.909Z,938.9
2017-02-02T01:13:16.058Z,939.0
2017-02-02T01:14:24.097Z,939.0
2017-02-02T01:15:32.185Z,939.0
2017-02-02T01:16:40.338Z,939.0
2017-02-02T01:17:48.376Z,939.0
2017-02-02T01:18:56.588Z,939.0
2017-02-02T01:20:04.560Z,939.0
2017-02-02T01:21:12.650Z,939.0
2017-02-02T01:22:20.742Z,939.0
2017-02-02T01:23:29.025Z,939.1
2017-02-02T01:24:37.043Z,939.1
2017-02-02T01:25:45.015Z,939.1
2017-02-02T01:26:53.108Z,939.1
2017-02-02T01:28:01.191Z,939.2
2017-02-02T01:29:09.290Z,939.2
2017-02-02T01:30:17.436Z,939.2
2017-02-02T01:31:25.466Z,939.2
2017-02-02T01:32:33.678Z,939.2
2017-02-02T01:33:41.657Z,939.2
2017-02-02T01:34:49.854Z,939.3
2017-02-02T01:35:57.886Z,939.3
2017-02-02T01:37:05.932Z,939.3
2017-02-02T01:38:14.019Z,939.3
2017-02-02T01:39:22.111Z,939.3
2017-02-02T01:40:30.204Z,939.3
2017-02-02T01:41:38.360Z,939.3
2017-02-02T01:42:46.396Z,939.2
2017-02-02T01:43:54.487Z,939.2
2017-02-02T01:45:02.592Z,939.2
2017-02-02T01:46:10.680Z,939.2
2017-02-02T01:47:18.826Z,939.2
2017-02-02T01:48:26.976Z,939.1
2017-02-02T01:49:35.068Z,939.1
2017-02-02T01:50:43.122Z,939.1
2017-02-02T01:51:51.129Z,939.1
2017-02-02T01:52:59.279Z,939.1
2017-02-02T01:54:07.311Z,939.1
2017-02-02T01:55:15.597Z,939.1
2017-02-02T01:56:23.485Z,939.1
2017-02-02T01:57:31.585Z,939.0
2017-02-02T01:58:39.731Z,939.0
2017-02-02T01:59:47.773Z,939.0
2017-02-02T02:00:55.921Z,939.0
2017-02-02T02:02:03.952Z,939.0
2017-02-02T02:03:12.037Z,938.9
2017-02-02T02:04:20.247Z,938.9
2017-02-02T02:05:28.219Z,938.9
2017-02-02T02:06:36.307Z,938.8
2017-02-02T02:07:44.398Z,938.8
2017-02-02T02:08:52.492Z,938.8
2017-02-02T02:10:00.640Z,938.8
2017-02-02T02:11:08.719Z,938.8
2017-02-02T02:12:16.805Z,938.8
2017-02-02T02:13:24.852Z,938.8
2017-02-02T02:14:32.940Z,938.8
2017-02-02T02:15:41.086Z,938.7
2017-02-02T02:16:49.299Z,938.8
2017-02-02T02:17:57.218Z,938.8
2017-02-02T02:19:05.306Z,938.8
2017-02-02T02:20:13.460Z,938.8
2017-02-02T02:21:21.638Z,938.9
2017-02-02T02:22:29.586Z,938.8
2017-02-02T02:23:37.671Z,938.9
2017-02-02T02:24:45.764Z,938.8
2017-02-02T02:25:53.854Z,938.8
2017-02-02T02:27:02.131Z,938.7
2017-02-02T02:28:10.034Z,938.8
2017-02-02T02:29:18.124Z,938.8
2017-02-02T02:30:26.213Z,938.8
2017-02-02T02:31:34.301Z,938.8
2017-02-02T02:32:42.463Z,938.9
2017-02-02T02:33:50.494Z,938.8
2017-02-02T02:34:58.586Z,938.7
2017-02-02T02:36:06.731Z,938.7
2017-02-02T02:37:14.765Z,938.7
2017-02-02T02:38:23.017Z,938.6
2017-02-02T02:39:30.946Z,938.6
2017-02-02T02:40:39.043Z,938.6
2017-02-02T02:41:47.137Z,938.7
2017-02-02T02:42:55.411Z,938.7
2017-02-02T02:44:03.367Z,938.7
2017-02-02T02:45:11.400Z,938.7
2017-02-02T02:46:19.493Z,938.7
2017-02-02T02:47:27.580Z,938.7
2017-02-02T02:48:35.673Z,938.7
2017-02-02T02:49:43.820Z,938.7
2017-02-02T02:50:51.850Z,938.7
2017-02-02T02:52:00.066Z,938.7
2017-02-02T02:53:08.138Z,938.7
2017-02-02T02:54:16.214Z,938.7
2017-02-02T02:55:24.269Z,938.8
2017-02-02T02:56:32.310Z,938.8
2017-02-02T02:57:40.400Z,938.8
2017-02-02T02:58:48.678Z,938.8
2017-02-02T02:59:56.583Z,938.7
2017-02-02T03:01:04.732Z,938.8
2017-02-02T03:02:12.758Z,938.8
2017-02-02T03:03:20.848Z,938.7
2017-02-02T03:04:28.954Z,938.7
2017-02-02T03:05:37.036Z,938.7
2017-02-02T03:06:45.178Z,938.7
2017-02-02T03:07:53.340Z,938.7
2017-02-02T03:09:01.349Z,938.6
2017-02-02T03:10:09.400Z,938.6
2017-02-02T03:11:17.491Z,938.6
2017-02-02T03:12:25.634Z,938.6
2017-02-02T03:13:33.666Z,938.7
2017-02-02T03:14:41.751Z,938.7
2017-02-02T03:15:49.849Z,938.7
2017-02-02T03:16:57.937Z,938.7
2017-02-02T03:18:06.079Z,938.8
2017-02-02T03:19:14.190Z,938.8
2017-02-02T03:20:22.360Z,938.7
2017-02-02T03:21:30.297Z,938.7
2017-02-02T03:22:38.383Z,938.7
2017-02-02T03:23:46.596Z,938.7
2017-02-02T03:24:54.565Z,938.7
2017-02-02T03:26:02.650Z,938.7
2017-02-02T03:27:10.747Z,938.7
2017-02-02T03:28:18.836Z,938.7
2017-02-02T03:29:26.985Z,938.7
2017-02-02T03:30:35.152Z,938.7
2017-02-02T03:31:43.109Z,938.7
2017-02-02T03:32:51.217Z,938.7
2017-02-02T03:33:59.314Z,938.7
2017-02-02T03:35:07.459Z,938.6
2017-02-02T03:36:15.639Z,938.6
2017-02-02T03:37:23.580Z,938.6
2017-02-02T03:38:31.671Z,938.6
2017-02-02T03:39:39.879Z,938.6
2017-02-02T03:40:47.903Z,938.6
2017-02-02T03:41:56.029Z,938.6
2017-02-02T03:43:04.030Z,938.7
2017-02-02T03:44:12.117Z,938.6
2017-02-02T03:45:20.212Z,938.6
2017-02-02T03:46:28.353Z,938.6
2017-02-02T03:47:36.389Z,938.6
2017-02-02T03:48:44.481Z,938.6
2017-02-02T03:49:52.563Z,938.6
2017-02-02T03:51:00.657Z,938.6
2017-02-02T03:52:08.839Z,938.6
2017-02-02T03:53:16.846Z,938.5
2017-02-02T03:54:24.930Z,938.5
2017-02-02T03:55:33.151Z,938.6
2017-02-02T03:56:41.276Z,938.6
2017-02-02T03:57:49.449Z,938.5
2017-02-02T03:58:57.293Z,938.5
2017-02-02T04:00:05.383Z,938.5
2017-02-02T04:01:13.471Z,938.5
2017-02-02T04:02:21.555Z,938.5
2017-02-02T04:03:29.710Z,938.5
2017-02-02T04:04:37.747Z,938.5
2017-02-02T04:05:45.833Z,938.5
2017-02-02T04:06:53.929Z,938.5
2017-02-02T04:08:02.122Z,938.5
2017-02-02T04:09:10.225Z,938.5
2017-02-02T04:10:18.192Z,938.5
2017-02-02T04:11:26.341Z,938.5
2017-02-02T04:12:34.374Z,938.5
2017-02-02T04:13:42.462Z,938.5
2017-02-02T04:14:50.620Z,938.5
2017-02-02T04:15:58.662Z,938.5
2017-02-02T04:17:06.748Z,938.5
2017-02-02T04:18:14.841Z,938.5
2017-02-02T04:19:22.933Z,938.4
2017-02-02T04:20:31.079Z,938.5
2017-02-02T04:21:39.110Z,938.4
2017-02-02T04:22:47.301Z,938.5
2017-02-02T04:23:55.363Z,938.4
2017-02-02T04:25:03.379Z,938.4
2017-02-02T04:26:11.607Z,938.4
2017-02-02T04:27:19.622Z,938.5
2017-02-02T04:28:27.649Z,938.4
2017-02-02T04:29:35.739Z,938.4
2017-02-02T04:30:43.834Z,938.5
2017-02-02T04:31:51.983Z,938.5
2017-02-02T04:33:00.016Z,938.4
2017-02-02T04:34:08.218Z,938.5
2017-02-02T04:35:16.193Z,938.5
2017-02-02T04:36:24.285Z,938.5
2017-02-02T04:37:32.487Z,938.5
2017-02-02T04:38:40.458Z,938.5
2017-02-02T04:39:48.552Z,938.5
2017-02-02T04:40:56.634Z,938.5
2017-02-02T04:42:04.747Z,938.5
2017-02-02T04:43:12.869Z,938.5
2017-02-02T04:44:20.900Z,938.5
2017-02-02T04:45:29.088Z,938.5
2017-02-02T04:46:37.085Z,938.4
2017-02-02T04:47:45.171Z,938.4
2017-02-02T04:48:53.375Z,938.4
2017-02-02T04:50:01.345Z,938.4
2017-02-02T04:51:09.432Z,938.4
2017-02-02T04:52:17.517Z,938.4
2017-02-02T04:53:25.608Z,938.4
2017-02-02T04:54:33.760Z,938.4
2017-02-02T04:55:41.864Z,938.4
2017-02-02T04:56:49.880Z,938.4
2017-02-02T04:57:57.968Z,938.4
2017-02-02T04:59:06.180Z,938.4
2017-02-02T05:00:14.200Z,938.4
2017-02-02T05:01:22.225Z,938.4
2017-02-02T05:02:30.319Z,938.4
2017-02-02T05:03:38.410Z,938.4
2017-02-02T05:04:46.498Z,938.4
2017-02-02T05:05:54.650Z,938.4
2017-02-02T05:07:02.717Z,938.4
2017-02-02T05:08:11.031Z,938.4
2017-02-02T05:09:18.861Z,938.4
2017-02-02T05:10:26.952Z,938.4
2017-02-02T05:11:36.116Z,938.4
2017-02-02T05:12:43.245Z,938.4
2017-02-02T05:13:51.266Z,938.4
2017-02-02T05:15:00.459Z,938.4
2017-02-02T05:16:07.400Z,938.4
2017-02-02T05:17:15.546Z,938.4
2017-02-02T05:18:23.586Z,938.5
2017-02-02T05:19:31.675Z,938.4
2017-02-02T05:20:39.762Z,938.4
2017-02-02T05:21:47.945Z,938.4
2017-02-02T05:22:56.063Z,938.4
2017-02-02T05:24:04.034Z,938.5
2017-02-02T05:25:12.117Z,938.5
2017-02-02T05:26:20.217Z,938.5
2017-02-02T05:27:28.406Z,938.5
2017-02-02T05:28:37.410Z,938.5
2017-02-02T05:29:44.485Z,938.5
2017-02-02T05:30:52.630Z,938.5
2017-02-02T05:32:00.661Z,938.5
2017-02-02T05:33:08.745Z,938.5
2017-02-02T05:34:16.956Z,938.5
2017-02-02T05:35:24.929Z,938.5
2017-02-02T05:36:33.014Z,938.5
2017-02-02T05:37:41.196Z,938.5
2017-02-02T05:38:49.199Z,938.5
2017-02-02T05:39:57.339Z,938.5
2017-02-02T05:41:05.375Z,938.5
2017-02-02T05:42:14.106Z,938.5
2017-02-02T05:43:21.554Z,938.4
2017-02-02T05:44:29.638Z,938.5
2017-02-02T05:45:37.786Z,938.4
2017-02-02T05:46:45.942Z,938.5
2017-02-02T05:47:53.941Z,938.5
2017-02-02T05:49:01.994Z,938.4
2017-02-02T05:50:10.086Z,938.4
2017-02-02T05:51:18.227Z,938.5
2017-02-02T05:52:26.275Z,938.5
2017-02-02T05:53:34.429Z,938.5
2017-02-02T05:54:42.441Z,938.5
2017-02-02T05:55:50.528Z,938.5
2017-02-02T05:56:58.736Z,938.5
2017-02-02T05:58:06.708Z,938.5
2017-02-02T05:59:14.798Z,938.5
2017-02-02T06:00:22.884Z,938.5
2017-02-02T06:01:30.979Z,938.5
2017-02-02T06:02:39.123Z,938.5
2017-02-02T06:03:47.282Z,938.5
2017-02-02T06:04:55.307Z,938.5
2017-02-02T06:06:03.330Z,938.5
2017-02-02T06:07:11.586Z,938.5
2017-02-02T06:08:19.559Z,938.4
2017-02-02T06:09:27.592Z,938.4
2017-02-02T06:10:35.682Z,938.4
2017-02-02T06:11:43.778Z,938.4
2017-02-02T06:12:52.293Z,938.4
2017-02-02T06:14:00.078Z,938.4
2017-02-02T06:15:08.165Z,938.4
2017-02-02T06:16:16.144Z,938.4
2017-02-02T06:17:24.243Z,938.5
2017-02-02T06:18:33.010Z,938.5
2017-02-02T06:19:40.485Z,938.4
2017-02-02T06:20:48.949Z,938.4
2017-02-02T06:21:56.605Z,938.4
2017-02-02T06:23:04.691Z,938.4
2017-02-02T06:24:13.348Z,938.4
2017-02-02T06:25:21.780Z,938.4
2017-02-02T06:26:29.624Z,938.4
2017-02-02T06:27:37.060Z,938.4
2017-02-02T06:28:45.153Z,938.4
2017-02-02T06:29:53.241Z,938.4
2017-02-02T06:31:01.390Z,938.4
2017-02-02T06:32:09.426Z,938.4
2017-02-02T06:33:17.884Z,938.4
2017-02-02T06:34:25.727Z,938.4
2017-02-02T06:35:33.693Z,938.4
2017-02-02T06:36:41.855Z,938.4
2017-02-02T06:37:49.870Z,938.4
2017-02-02T06:38:57.963Z,938.4
2017-02-02T06:40:06.071Z,938.3
2017-02-02T06:41:14.304Z,938.4
2017-02-02T06:42:22.356Z,938.4
2017-02-02T06:43:30.505Z,938.4
2017-02-02T06:44:38.425Z,938.4
2017-02-02T06:45:46.516Z,938.3
2017-02-02T06:46:54.612Z,938.4
2017-02-02T06:48:02.755Z,938.4
2017-02-02T06:49:10.790Z,938.4
2017-02-02T07:00:31.793Z,938.2
2017-02-02T07:01:39.759Z,938.3
2017-02-02T07:02:47.845Z,938.3
2017-02-02T07:03:56.013Z,938.3
2017-02-02T07:05:04.024Z,938.2
2017-02-02T07:06:12.229Z,938.2
2017-02-02T07:07:20.198Z,938.3
2017-02-02T07:08:28.382Z,938.3
2017-02-02T07:09:36.384Z,938.3
2017-02-02T07:10:44.473Z,938.2
2017-02-02T07:11:52.618Z,938.2
2017-02-02T07:13:00.653Z,938.2
2017-02-02T07:14:08.786Z,938.2
2017-02-02T07:15:16.873Z,938.2
2017-02-02T07:16:25.046Z,938.2
2017-02-02T07:17:33.075Z,938.2
2017-02-02T07:18:41.276Z,938.2
2017-02-02T07:19:49.353Z,938.2
2017-02-02T07:20:57.727Z,938.2
2017-02-02T07:22:05.397Z,938.2
2017-02-02T07:23:13.530Z,938.2
2017-02-02T07:24:21.553Z,938.2
2017-02-02T07:25:29.641Z,938.2
2017-02-02T07:26:37.730Z,938.2
2017-02-02T07:27:45.823Z,938.2
2017-02-02T07:28:54.034Z,938.1
2017-02-02T07:30:02.131Z,938.1
2017-02-02T07:31:10.086Z,938.1
2017-02-02T07:32:18.231Z,938.2
2017-02-02T07:33:26.272Z,938.1
2017-02-02T07:34:34.415Z,938.1
2017-02-02T07:35:42.457Z,938.1
2017-02-02T07:36:50.547Z,938.1
2017-02-02T07:37:58.635Z,938.1
2017-02-02T07:39:06.723Z,938.1
2017-02-02T07:40:14.981Z,938.1
2017-02-02T07:41:22.941Z,938.2
2017-02-02T07:42:30.997Z,938.1
2017-02-02T07:43:39.099Z,938.2
2017-02-02T07:44:47.240Z,938.2
2017-02-02T07:45:55.522Z,938.2
2017-02-02T07:47:03.359Z,938.3
2017-02-02T07:48:11.573Z,938.2
2017-02-02T07:49:19.539Z,938.2
2017-02-02T07:50:27.624Z,938.2
2017-02-02T07:51:35.839Z,938.2
2017-02-02T07:52:43.813Z,938.2
2017-02-02T07:53:51.900Z,938.1
2017-02-02T07:54:59.988Z,938.1
2017-02-02T07:56:08.126Z,938.1
2017-02-02T07:57:16.228Z,938.1
2017-02-02T07:58:24.260Z,938.1
2017-02-02T07:59:32.349Z,938.1
2017-02-02T08:00:40.547Z,938.0
2017-02-02T08:01:48.650Z,938.0
2017-02-02T08:02:56.737Z,938.0
2017-02-02T08:04:04.870Z,938.0
2017-02-02T08:05:13.094Z,938.0
2017-02-02T08:06:21.467Z,938.0
2017-02-02T08:07:29.075Z,938.0
2017-02-02T08:08:37.117Z,938.0
2017-02-02T08:09:45.151Z,937.9
2017-02-02T08:10:54.589Z,938.0
2017-02-02T08:12:01.528Z,937.9
2017-02-02T08:13:09.507Z,937.9
2017-02-02T08:14:17.843Z,937.9
2017-02-02T08:15:25.696Z,937.9
2017-02-02T08:16:33.922Z,937.9
2017-02-02T08:17:41.771Z,937.9
2017-02-02T08:18:49.858Z,937.9
2017-02-02T08:19:58.007Z,937.8
2017-02-02T08:21:06.038Z,937.8
2017-02-02T08:22:14.158Z,937.8
2017-02-02T08:23:22.234Z,937.8
2017-02-02T08:24:30.311Z,937.8
2017-02-02T08:25:38.521Z,937.8
2017-02-02T08:26:46.817Z,937.7
2017-02-02T08:27:54.761Z,937.7
2017-02-02T08:29:02.661Z,937.7
2017-02-02T08:30:10.755Z,937.7
2017-02-02T08:31:18.902Z,937.6
2017-02-02T08:32:26.936Z,937.6
2017-02-02T08:33:35.081Z,937.6
2017-02-02T08:34:43.115Z,937.6
2017-02-02T08:35:51.264Z,937.6
2017-02-02T08:36:59.416Z,937.6
2017-02-02T08:38:07.498Z,937.5
2017-02-02T08:39:15.979Z,937.5
2017-02-02T08:40:23.574Z,937.5
2017-02-02T08:41:31.658Z,937.6
2017-02-02T08:42:39.873Z,937.6
2017-02-02T08:43:47.839Z,937.6
2017-02-02T08:44:55.928Z,937.6
2017-02-02T08:46:04.039Z,937.6
2017-02-02T08:47:12.363Z,937.5
2017-02-02T08:48:20.374Z,937.6
2017-02-02T08:49:28.375Z,937.6
2017-02-02T08:50:36.376Z,937.6
2017-02-02T08:51:44.520Z,937.6
2017-02-02T08:52:52.549Z,937.6
2017-02-02T08:54:00.762Z,937.6
2017-02-02T08:55:08.733Z,937.6
2017-02-02T08:56:16.826Z,937.6
2017-02-02T08:57:24.910Z,937.6
2017-02-02T08:58:33.004Z,937.6
2017-02-02T08:59:41.118Z,937.6
2017-02-02T09:00:49.182Z,937.6
2017-02-02T09:01:57.275Z,937.6
2017-02-02T09:03:05.374Z,937.6
2017-02-02T09:04:13.605Z,937.6
2017-02-02T09:05:21.615Z,937.6
2017-02-02T09:06:29.642Z,937.6
2017-02-02T09:07:37.786Z,937.5
2017-02-02T09:08:45.825Z,937.6
2017-02-02T09:09:53.909Z,937.5
2017-02-02T09:11:02.057Z,937.5
2017-02-02T09:12:10.093Z,937.6
2017-02-02T09:13:18.186Z,937.5
2017-02-02T09:14:26.274Z,937.5
2017-02-02T09:15:34.366Z,937.5
2017-02-02T09:16:42.569Z,937.5
2017-02-02T09:17:50.540Z,937.5
2017-02-02T09:18:58.632Z,937.5
2017-02-02T09:20:06.864Z,937.5
2017-02-02T09:21:14.809Z,937.5
2017-02-02T09:22:22.963Z,937.5
2017-02-02T09:23:31.050Z,937.4
2017-02-02T09:24:39.092Z,937.4
2017-02-02T09:25:47.183Z,937.4
2017-02-02T09:26:55.401Z,937.4
2017-02-02T09:28:03.483Z,937.4
2017-02-02T09:29:11.450Z,937.4
2017-02-02T09:30:19.610Z,937.4
2017-02-02T09:31:27.845Z,937.4
2017-02-02T09:32:35.719Z,937.4
2017-02-02T09:33:43.933Z,937.4
2017-02-02T09:34:51.912Z,937.4
2017-02-02T09:35:59.999Z,937.3
2017-02-02T09:37:08.090Z,937.3
2017-02-02T09:38:16.184Z,937.4
2017-02-02T09:39:24.329Z,937.3
2017-02-02T09:40:32.358Z,937.3
2017-02-02T09:41:40.454Z,937.3
2017-02-02T09:42:48.543Z,937.3
2017-02-02T09:43:56.638Z,937.2
2017-02-02T09:45:04.840Z,937.3
2017-02-02T09:46:12.979Z,937.3
2017-02-02T09:47:20.904Z,937.3
2017-02-02T09:48:28.992Z,937.3
2017-02-02T09:49:37.083Z,937.3
2017-02-02T09:50:45.229Z,937.2
2017-02-02T09:51:53.282Z,937.3
2017-02-02T09:53:01.350Z,937.2
2017-02-02T09:54:09.445Z,937.2
2017-02-02T09:55:17.591Z,937.2
2017-02-02T09:56:25.788Z,937.1
2017-02-02T09:57:33.836Z,937.0
2017-02-02T09:58:41.805Z,937.0
2017-02-02T09:59:49.896Z,937.0
2017-02-02T10:00:57.987Z,937.1
2017-02-02T10:02:06.127Z,937.1
2017-02-02T10:03:14.159Z,937.0
2017-02-02T10:04:22.244Z,936.9
2017-02-02T10:05:30.334Z,936.9
2017-02-02T10:06:38.425Z,937.0
2017-02-02T10:07:46.717Z,937.0
2017-02-02T10:08:54.601Z,937.0
2017-02-02T10:10:02.692Z,937.0
2017-02-02T10:11:10.906Z,936.9
2017-02-02T10:12:19.067Z,936.9
2017-02-02T10:13:27.107Z,936.9
2017-02-02T10:14:35.047Z,936.9
2017-02-02T10:15:43.131Z,936.9
2017-02-02T10:16:51.220Z,936.9
2017-02-02T10:17:59.319Z,936.9
2017-02-02T10:19:07.460Z,936.8
2017-02-02T10:20:15.491Z,936.7
2017-02-02T10:21:23.578Z,936.7
2017-02-02T10:22:31.668Z,936.7
2017-02-02T10:23:39.869Z,936.7
2017-02-02T10:24:47.961Z,936.7
2017-02-02T10:25:55.932Z,936.7
2017-02-02T10:27:04.075Z,936.7
2017-02-02T10:28:12.104Z,936.7
2017-02-02T10:29:20.196Z,936.7
2017-02-02T10:30:28.360Z,936.7
2017-02-02T10:31:36.376Z,936.7
2017-02-02T10:32:44.465Z,936.7
2017-02-02T10:33:52.585Z,936.7
2017-02-02T10:35:00.723Z,936.6
2017-02-02T10:36:08.792Z,936.5
2017-02-02T10:37:16.823Z,936.5
2017-02-02T10:38:25.052Z,936.5
2017-02-02T10:39:33.131Z,936.5
2017-02-02T10:40:41.097Z,936.5
2017-02-02T10:41:49.255Z,936.5
2017-02-02T10:42:57.341Z,936.4
2017-02-02T10:44:05.376Z,936.3
2017-02-02T10:45:13.466Z,936.4
2017-02-02T10:46:21.564Z,936.3
2017-02-02T10:47:29.776Z,936.4
2017-02-02T10:48:37.740Z,936.4
2017-02-02T10:49:45.944Z,936.4
2017-02-02T10:50:53.924Z,936.4
2017-02-02T10:52:02.009Z,936.4
2017-02-02T10:53:10.162Z,936.3
2017-02-02T10:54:18.194Z,936.3
2017-02-02T10:55:26.282Z,936.3
2017-02-02T10:56:34.369Z,936.3
2017-02-02T10:57:42.457Z,936.3
2017-02-02T10:58:50.674Z,936.3
2017-02-02T10:59:58.735Z,936.3
2017-02-02T11:01:06.817Z,936.3
2017-02-02T11:02:14.826Z,936.2
2017-02-02T11:03:22.904Z,936.2
2017-02-02T11:04:31.434Z,936.2
2017-02-02T11:05:39.087Z,936.2
2017-02-02T11:06:47.174Z,936.2
2017-02-02T11:07:55.260Z,936.2
2017-02-02T11:09:03.356Z,936.2
2017-02-02T11:10:11.501Z,936.1
2017-02-02T11:11:19.623Z,936.1
2017-02-02T11:12:27.626Z,936.0
2017-02-02T11:13:35.716Z,936.0
2017-02-02T11:14:43.861Z,936.0
2017-02-02T11:15:52.193Z,936.0
2017-02-02T11:16:59.985Z,935.9
2017-02-02T11:18:08.070Z,935.9
2017-02-02T11:19:16.155Z,935.8
2017-02-02T11:20:24.246Z,935.8
2017-02-02T11:21:32.456Z,935.8
2017-02-02T11:22:40.434Z,935.8
2017-02-02T11:23:48.515Z,935.7
2017-02-02T11:24:56.603Z,935.7
2017-02-02T11:26:04.690Z,935.7
2017-02-02T11:27:12.987Z,935.7
2017-02-02T11:28:20.874Z,935.7
2017-02-02T11:29:28.959Z,935.7
2017-02-02T11:30:37.166Z,935.7
2017-02-02T11:31:45.502Z,935.7
2017-02-02T11:32:53.287Z,935.6
2017-02-02T11:34:01.316Z,935.7
2017-02-02T11:35:09.415Z,935.7
2017-02-02T11:36:17.509Z,935.7
2017-02-02T11:37:25.682Z,935.7
2017-02-02T11:38:33.867Z,935.6
2017-02-02T11:39:41.776Z,935.6
2017-02-02T11:40:49.865Z,935.6
2017-02-02T11:41:57.952Z,935.6
2017-02-02T11:43:06.227Z,935.6
2017-02-02T11:44:14.252Z,935.5
2017-02-02T11:45:22.223Z,935.5
2017-02-02T11:46:30.366Z,935.5
2017-02-02T11:47:38.393Z,935.5
2017-02-02T11:48:46.490Z,935.4
2017-02-02T11:49:54.704Z,935.4
2017-02-02T11:51:02.669Z,935.4
2017-02-02T11:52:10.765Z,935.4
2017-02-02T11:53:18.923Z,935.3
2017-02-02T11:54:26.950Z,935.3
2017-02-02T11:55:35.095Z,935.3
2017-02-02T11:56:43.137Z,935.3
2017-02-02T11:57:51.393Z,935.3
2017-02-02T11:58:59.311Z,935.3
2017-02-02T12:00:07.402Z,935.3
2017-02-02T12:01:15.552Z,935.3
2017-02-02T12:02:23.640Z,935.2
2017-02-02T12:03:31.668Z,935.2
2017-02-02T12:04:39.760Z,935.2
2017-02-02T12:05:47.847Z,935.2
2017-02-02T12:06:55.993Z,935.1
2017-02-02T12:08:04.051Z,935.1
2017-02-02T12:09:12.234Z,935.1
2017-02-02T12:10:20.205Z,935.1
2017-02-02T12:11:28.303Z,935.1
2017-02-02T12:12:36.444Z,935.1
2017-02-02T12:13:44.485Z,935.1
2017-02-02T12:14:52.571Z,935.0
2017-02-02T12:16:00.667Z,935.0
2017-02-02T12:17:09.000Z,935.0
2017-02-02T12:18:16.909Z,934.9
2017-02-02T12:19:25.059Z,934.9
2017-02-02T12:20:33.036Z,934.9
2017-02-02T12:21:41.121Z,934.8
2017-02-02T12:22:49.206Z,934.8
2017-02-02T12:23:59.510Z,934.8
2017-02-02T12:25:05.458Z,934.8
2017-02-02T12:26:13.484Z,934.8
2017-02-02T12:27:21.578Z,934.8
2017-02-02T12:28:29.661Z,934.8
2017-02-02T12:29:37.877Z,934.7
2017-02-02T12:30:45.886Z,934.7
2017-02-02T12:31:53.939Z,934.6
2017-02-02T12:33:02.025Z,934.6
2017-02-02T12:34:10.192Z,934.6
2017-02-02T12:36:04.382Z,934.6
2017-02-02T12:37:00.298Z,934.7
2017-02-02T12:39:54.225Z,nan
2017-02-02T12:41:02.305Z,nan
2017-02-02T12:42:10.393Z,nan
2017-02-02T12:43:18.482Z,nan
2017-02-02T12:44:26.694Z,nan
2017-02-02T12:45:34.665Z,nan
2017-02-02T12:46:42.813Z,nan
2017-02-02T12:47:50.854Z,nan
2017-02-02T12:48:58.949Z,nan
2017-02-02T12:50:07.175Z,nan
2017-02-02T12:51:15.122Z,nan
2017-02-02T12:52:23.274Z,nan
2017-02-02T12:53:31.306Z,nan
2017-02-02T12:54:39.398Z,nan
2017-02-02T12:55:47.483Z,nan
2017-02-02T12:56:55.582Z,nan
2017-02-02T12:58:05.631Z,nan
2017-02-02T12:59:11.756Z,nan
2017-02-02T13:00:19.951Z,nan
2017-02-02T13:01:27.945Z,nan
2017-02-02T13:02:36.036Z,nan
2017-02-02T13:03:44.241Z,nan
2017-02-02T13:04:52.213Z,nan
2017-02-02T13:05:55.119Z,934.4
2017-02-02T13:07:03.154Z,934.3
2017-02-02T13:08:11.246Z,934.2
2017-02-02T13:09:19.385Z,934.2
2017-02-02T13:10:27.426Z,934.2
2017-02-02T13:11:35.514Z,934.2
2017-02-02T13:12:43.599Z,934.2
2017-02-02T13:13:52.015Z,934.2
2017-02-02T13:14:59.836Z,934.2
2017-02-02T13:16:07.859Z,934.2
2017-02-02T13:17:15.945Z,934.2
2017-02-02T13:18:24.038Z,934.2
2017-02-02T13:19:32.126Z,934.1
2017-02-02T13:20:40.276Z,934.2
2017-02-02T13:21:48.425Z,934.2
2017-02-02T13:22:56.399Z,934.1
2017-02-02T13:24:04.631Z,934.1
2017-02-02T13:25:12.711Z,934.1
2017-02-02T13:26:20.722Z,934.1
2017-02-02T13:27:28.752Z,934.1
2017-02-02T13:28:36.843Z,934.1
2017-02-02T13:29:44.935Z,934.0
2017-02-02T13:30:53.023Z,934.0
2017-02-02T13:32:01.171Z,934.0
2017-02-02T13:33:09.213Z,934.0
2017-02-02T13:34:17.302Z,934.0
2017-02-02T13:35:25.391Z,934.0
2017-02-02T13:36:33.481Z,934.0
2017-02-02T13:37:41.677Z,934.0
2017-02-02T13:38:49.650Z,934.0
2017-02-02T13:39:57.740Z,934.0
2017-02-02T13:41:05.826Z,934.0
2017-02-02T13:42:13.931Z,934.0
2017-02-02T13:43:22.671Z,934.0
2017-02-02T13:44:30.278Z,934.0
2017-02-02T13:45:38.287Z,934.0
2017-02-02T13:46:46.350Z,934.0
2017-02-02T13:47:54.377Z,934.0
2017-02-02T13:49:02.593Z,934.0
2017-02-02T13:50:10.655Z,934.0
2017-02-02T13:51:19.203Z,933.9
2017-02-02T13:52:26.725Z,933.9
2017-02-02T13:53:34.935Z,933.9
2017-02-02T13:54:42.963Z,933.9
2017-02-02T13:55:50.994Z,933.9
2017-02-02T13:56:59.131Z,933.9
2017-02-02T13:58:07.175Z,933.9
2017-02-02T13:59:15.270Z,933.9
2017-02-02T14:00:23.474Z,933.9
2017-02-02T14:01:31.610Z,933.9
2017-02-02T14:02:39.542Z,933.9
2017-02-02T14:03:47.629Z,933.9
2017-02-02T14:04:55.717Z,933.8
2017-02-02T14:06:03.867Z,933.9
2017-02-02T14:07:11.973Z,933.8
2017-02-02T14:08:19.989Z,933.8
2017-02-02T14:09:28.199Z,933.8
2017-02-02T14:10:36.173Z,933.8
2017-02-02T14:11:44.318Z,933.8
2017-02-02T14:12:52.348Z,933.8
2017-02-02T14:14:00.441Z,933.8
2017-02-02T14:15:08.531Z,933.8
2017-02-02T14:16:16.618Z,933.8
2017-02-02T14:17:24.996Z,933.7
2017-02-02T14:18:32.802Z,933.7
2017-02-02T14:19:40.892Z,933.7
2017-02-02T14:20:48.981Z,933.7
2017-02-02T14:21:57.072Z,933.7
2017-02-02T14:23:05.219Z,933.7
2017-02-02T14:24:13.244Z,933.7
2017-02-02T14:25:21.458Z,933.7
2017-02-02T14:26:29.422Z,933.7
2017-02-02T14:27:37.589Z,933.7
2017-02-02T14:28:45.775Z,933.7
2017-02-02T14:29:53.690Z,933.7
2017-02-02T14:31:01.782Z,933.7
2017-02-02T14:32:10.066Z,933.7
2017-02-02T14:33:18.144Z,933.7
2017-02-02T14:34:26.104Z,933.7
2017-02-02T14:35:34.134Z,933.7
2017-02-02T14:36:42.221Z,933.7
2017-02-02T14:37:50.313Z,933.7
2017-02-02T14:38:58.399Z,933.7
2017-02-02T14:40:06.604Z,933.7
2017-02-02T14:41:14.631Z,933.7
2017-02-02T14:42:22.664Z,933.8
2017-02-02T14:43:30.929Z,933.8
2017-02-02T14:44:38.836Z,933.7
2017-02-02T14:45:46.986Z,933.7
2017-02-02T14:46:55.013Z,933.7
2017-02-02T14:48:03.095Z,933.7
2017-02-02T14:49:11.226Z,933.7
2017-02-02T14:50:19.305Z,933.8
2017-02-02T14:51:27.426Z,933.7